GMMN/CMN METAR and TAF weather

Enter ICAO airport designator
Station Type Date Time Source
GMMN METAR 2020/09/30 15:30 UTC NOAA

GMMN 301530Z 34009KT CAVOK 26/17 Q1016 NOSIG


Station Type Date Time Source
GMMN Decoded METAR 2020/09/30 15:30 UTC NOAA

Nouasseur, Morocco (GMMN) 33-22N 007-35W 206M
Sep 30, 2020 - 11:30 AM EDT / 2020.09.30 1530 UTC
Wind: from the NNW (340 degrees) at 10 MPH (9 KT):0
Visibility: greater than 7 mile(s):0
Temperature: 78 F (26 C)
Dew Point: 62 F (17 C)
Relative Humidity: 57%
Pressure (altimeter): 30.00 in. Hg (1016 hPa)
ob: GMMN 301530Z 34009KT CAVOK 26/17 Q1016 NOSIG
cycle: 15

Station Type Date Time Source
GMMN TAF 2020/09/30 12:18 UTC NOAA

TAF TAF GMMN 301100Z 3012/0118 34005KT CAVOK
BECMG 3013/3014 36015KT
BECMG 3018/3020 36005KT SCT015 PROB40
TEMPO 0100/0105 3000 BR BKN010
BECMG 0113/0115 34015KT

Example: see airport list